South Wilmington, Illinois
Current Conditions -  °F | °C
As of 1:15 AM on Saturday 20 Dec 2014 (Local Time) from KC09 Reporting Station
Overcast Overcast  
Wind Chill: 26°   Ceiling: 7500
Heat Index: 26°   Visibility: 7mi
Dew Point: 25°   Wind: 3mph
Humidity: 96%   Direction: 200°SSW
Pressure: 30.27"   Gusts: NA
Location:  41.17°N, 88.28°W
Report Text: KC09 200715Z AUTO 20003KT 7SM SCT024 OVC075 M03/M04 A3027 RMK AO2 T10341040
Loading
Personal Weather Stations






























Interactive Weather Map New forecast layout! Learn more

10-Day Weather Forecast

Advertisements
Track Severe Weather on mobile